Time,TemperatureF,DewpointF,PressureIn,WindDirection,WindDirectionDegrees,WindSpeedMPH,WindSpeedGustMPH,Humidity,HourlyPrecipIn,Conditions,Clouds,dailyrainin,SolarRadiationWatts/m^2,SoftwareType,DateUTC
2013-03-13 00:01:00,20.8,16.7,30.37,West,263,4.0,8.0,84,0.00,,,0.00,0.0,meteohub,2013-03-13 05:01:00,
2013-03-13 00:06:00,20.7,16.5,30.37,NNW,341,2.0,8.0,84,0.00,,,0.00,0.0,meteohub,2013-03-13 05:06:00,
2013-03-13 00:11:00,20.7,16.3,30.37,NW,315,2.0,8.0,83,0.00,,,0.00,0.0,meteohub,2013-03-13 05:11:00,
2013-03-13 00:16:00,20.7,16.5,30.37,WNW,296,3.0,8.0,84,0.00,,,0.00,0.0,meteohub,2013-03-13 05:16:00,
2013-03-13 00:21:00,20.7,16.5,30.37,NNW,333,1.0,8.0,84,0.00,,,0.00,0.0,meteohub,2013-03-13 05:21:00,
2013-03-13 00:26:00,20.7,16.3,30.37,NW,306,4.0,10.0,83,0.00,,,0.00,0.0,meteohub,2013-03-13 05:26:00,
2013-03-13 00:31:00,20.5,16.2,30.37,NW,311,1.0,10.0,83,0.00,,,0.00,0.0,meteohub,2013-03-13 05:31:00,
2013-03-13 00:36:00,20.3,16.0,30.37,NW,306,2.0,10.0,83,0.00,,,0.00,0.0,meteohub,2013-03-13 05:36:00,
2013-03-13 00:42:00,20.3,16.0,30.38,SSW,213,3.0,11.0,83,0.00,,,0.00,0.0,meteohub,2013-03-13 05:42:00,
2013-03-13 00:47:00,20.1,15.8,30.38,North,9,3.0,11.0,83,0.00,,,0.00,0.0,meteohub,2013-03-13 05:47:00,
2013-03-13 00:52:00,19.9,15.6,30.38,West,281,5.0,11.0,83,0.00,,,0.00,0.0,meteohub,2013-03-13 05:52:00,
2013-03-13 00:57:00,19.8,15.4,30.38,NW,306,1.0,6.0,83,0.00,,,0.00,0.0,meteohub,2013-03-13 05:57:00,
2013-03-13 01:02:00,19.8,15.4,30.38,ENE,59,1.0,7.0,83,0.00,,,0.00,0.0,meteohub,2013-03-13 06:02:00,
2013-03-13 01:07:00,19.8,15.4,30.38,West,273,1.0,7.0,83,0.00,,,0.00,0.0,meteohub,2013-03-13 06:07:00,
2013-03-13 01:12:00,19.6,15.6,30.38,WSW,256,2.0,7.0,84,0.00,,,0.00,0.0,meteohub,2013-03-13 06:12:00,
2013-03-13 01:17:00,19.6,15.6,30.38,WNW,297,2.0,5.0,84,0.00,,,0.00,0.0,meteohub,2013-03-13 06:17:00,
2013-03-13 01:22:00,19.4,15.4,30.38,West,268,5.0,5.0,84,0.00,,,0.00,0.0,meteohub,2013-03-13 06:22:00,
2013-03-13 01:27:00,19.6,15.6,30.39,NW,305,2.0,6.0,84,0.00,,,0.00,0.0,meteohub,2013-03-13 06:27:00,
2013-03-13 01:32:00,19.6,15.6,30.39,West,264,3.0,7.0,84,0.00,,,0.00,0.0,meteohub,2013-03-13 06:32:00,
2013-03-13 01:37:00,19.6,15.6,30.39,West,278,2.0,7.0,84,0.00,,,0.00,0.0,meteohub,2013-03-13 06:37:00,
2013-03-13 01:42:00,19.6,15.3,30.39,NW,311,2.0,8.0,83,0.00,,,0.00,0.0,meteohub,2013-03-13 06:42:00,
2013-03-13 01:47:00,19.4,15.1,30.39,SW,222,4.0,8.0,83,0.00,,,0.00,0.0,meteohub,2013-03-13 06:47:00,
2013-03-13 01:52:00,19.2,14.9,30.39,WSW,258,5.0,10.0,83,0.00,,,0.00,0.0,meteohub,2013-03-13 06:52:00,
2013-03-13 01:57:00,19.0,15.1,30.39,NW,305,3.0,10.0,84,0.00,,,0.00,0.0,meteohub,2013-03-13 06:57:00,
2013-03-13 02:02:00,19.0,15.1,30.39,WNW,296,4.0,10.0,84,0.00,,,0.00,0.0,meteohub,2013-03-13 07:02:00,
2013-03-13 02:07:00,18.9,14.9,30.39,West,273,3.0,7.0,84,0.00,,,0.00,0.0,meteohub,2013-03-13 07:07:00,
2013-03-13 02:12:00,18.9,14.9,30.40,West,277,2.0,7.0,84,0.00,,,0.00,0.0,meteohub,2013-03-13 07:12:00,
2013-03-13 02:17:00,18.9,14.9,30.40,NW,308,2.0,9.0,84,0.00,,,0.00,0.0,meteohub,2013-03-13 07:17:00,
2013-03-13 02:22:00,18.7,14.7,30.39,WNW,282,1.0,9.0,84,0.00,,,0.00,0.0,meteohub,2013-03-13 07:22:00,
2013-03-13 02:27:00,18.7,14.9,30.40,West,273,1.0,9.0,85,0.00,,,0.00,0.0,meteohub,2013-03-13 07:27:00,
2013-03-13 02:32:00,18.7,14.9,30.40,West,275,3.0,8.0,85,0.00,,,0.00,0.0,meteohub,2013-03-13 07:32:00,
2013-03-13 02:37:00,18.5,14.7,30.40,West,267,3.0,8.0,85,0.00,,,0.00,0.0,meteohub,2013-03-13 07:37:00,
2013-03-13 02:42:00,18.3,14.5,30.40,West,275,3.0,8.0,85,0.00,,,0.00,0.0,meteohub,2013-03-13 07:42:00,
2013-03-13 02:47:00,18.3,14.5,30.40,WNW,300,2.0,8.0,85,0.00,,,0.00,0.0,meteohub,2013-03-13 07:47:00,
2013-03-13 02:52:00,18.3,14.5,30.40,WNW,292,2.0,8.0,85,0.00,,,0.00,0.0,meteohub,2013-03-13 07:52:00,
2013-03-13 02:57:00,18.1,14.4,30.40,NNW,327,3.0,7.0,85,0.00,,,0.00,0.0,meteohub,2013-03-13 07:57:00,
2013-03-13 03:02:00,18.1,14.4,30.40,West,276,1.0,6.0,85,0.00,,,0.00,0.0,meteohub,2013-03-13 08:02:00,
2013-03-13 03:08:00,18.0,14.2,30.40,WSW,257,2.0,6.0,85,0.00,,,0.00,0.0,meteohub,2013-03-13 08:08:00,
2013-03-13 03:13:00,17.8,14.4,30.40,NW,304,0.0,6.0,86,0.00,,,0.00,0.0,meteohub,2013-03-13 08:13:00,
2013-03-13 03:18:00,17.6,14.2,30.40,NW,323,1.0,6.0,86,0.00,,,0.00,0.0,meteohub,2013-03-13 08:18:00,
2013-03-13 03:23:00,17.4,14.0,30.40,NNW,336,2.0,6.0,86,0.00,,,0.00,0.0,meteohub,2013-03-13 08:23:00,
2013-03-13 03:28:00,17.2,13.8,30.41,West,269,3.0,3.0,86,0.00,,,0.00,0.0,meteohub,2013-03-13 08:28:00,
2013-03-13 03:33:00,17.1,13.6,30.40,WNW,287,0.0,6.0,86,0.00,,,0.00,0.0,meteohub,2013-03-13 08:33:00,
2013-03-13 03:38:00,16.7,13.3,30.40,West,273,1.0,6.0,86,0.00,,,0.00,0.0,meteohub,2013-03-13 08:38:00,
2013-03-13 03:43:00,16.3,12.9,30.40,West,260,3.0,6.0,86,0.00,,,0.00,0.0,meteohub,2013-03-13 08:43:00,
2013-03-13 03:48:00,16.2,12.9,30.40,WNW,288,1.0,4.0,87,0.00,,,0.00,0.0,meteohub,2013-03-13 08:48:00,
2013-03-13 03:53:00,16.0,12.7,30.41,SW,235,2.0,4.0,87,0.00,,,0.00,0.0,meteohub,2013-03-13 08:53:00,
2013-03-13 03:58:00,15.6,12.4,30.41,West,275,1.0,5.0,87,0.00,,,0.00,0.0,meteohub,2013-03-13 08:58:00,
2013-03-13 04:03:00,15.4,12.0,30.41,West,273,2.0,5.0,86,0.00,,,0.00,0.0,meteohub,2013-03-13 09:03:00,
2013-03-13 04:08:00,15.3,12.0,30.41,West,266,3.0,5.0,87,0.00,,,0.00,0.0,meteohub,2013-03-13 09:08:00,
2013-03-13 04:13:00,14.9,11.5,30.41,West,277,3.0,5.0,86,0.00,,,0.00,0.0,meteohub,2013-03-13 09:13:00,
2013-03-13 04:18:00,14.5,11.3,30.41,West,277,3.0,5.0,87,0.00,,,0.00,0.0,meteohub,2013-03-13 09:18:00,
2013-03-13 04:23:00,14.2,10.9,30.41,West,262,3.0,5.0,87,0.00,,,0.00,0.0,meteohub,2013-03-13 09:23:00,
2013-03-13 04:28:00,13.8,10.8,30.42,West,275,3.0,5.0,87,0.00,,,0.00,0.0,meteohub,2013-03-13 09:28:00,
2013-03-13 04:33:00,13.6,10.6,30.42,West,275,2.0,5.0,87,0.00,,,0.00,0.0,meteohub,2013-03-13 09:33:00,
2013-03-13 04:39:00,13.5,10.4,30.42,West,273,2.0,6.0,87,0.00,,,0.00,0.0,meteohub,2013-03-13 09:39:00,
2013-03-13 04:44:00,13.1,10.0,30.42,West,261,3.0,6.0,87,0.00,,,0.00,0.0,meteohub,2013-03-13 09:44:00,
2013-03-13 04:49:00,12.9,10.0,30.43,WNW,283,2.0,6.0,88,0.00,,,0.00,0.0,meteohub,2013-03-13 09:49:00,
2013-03-13 04:54:00,12.6,9.5,30.43,West,259,4.0,6.0,87,0.00,,,0.00,0.0,meteohub,2013-03-13 09:54:00,
2013-03-13 04:59:00,12.4,9.3,30.43,West,271,3.0,6.0,87,0.00,,,0.00,0.0,meteohub,2013-03-13 09:59:00,
2013-03-13 05:04:00,12.2,9.1,30.43,West,265,4.0,6.0,87,0.00,,,0.00,0.0,meteohub,2013-03-13 10:04:00,
2013-03-13 05:09:00,12.0,9.0,30.43,West,271,2.0,6.0,87,0.00,,,0.00,0.0,meteohub,2013-03-13 10:09:00,
2013-03-13 05:14:00,11.8,8.8,30.43,West,264,3.0,6.0,87,0.00,,,0.00,0.0,meteohub,2013-03-13 10:14:00,
2013-03-13 05:19:00,11.8,9.0,30.43,West,259,3.0,5.0,88,0.00,,,0.00,0.0,meteohub,2013-03-13 10:19:00,
2013-03-13 05:24:00,11.7,8.8,30.43,West,268,2.0,5.0,88,0.00,,,0.00,0.0,meteohub,2013-03-13 10:24:00,
2013-03-13 05:29:00,11.5,8.4,30.43,West,271,2.0,4.0,87,0.00,,,0.00,0.0,meteohub,2013-03-13 10:29:00,
2013-03-13 05:34:00,11.3,8.4,30.43,West,269,3.0,4.0,88,0.00,,,0.00,0.0,meteohub,2013-03-13 10:34:00,
2013-03-13 05:39:00,11.1,8.2,30.43,West,277,3.0,5.0,88,0.00,,,0.00,0.0,meteohub,2013-03-13 10:39:00,
2013-03-13 05:44:00,10.9,8.1,30.44,WNW,283,1.0,5.0,88,0.00,,,0.00,0.0,meteohub,2013-03-13 10:44:00,
2013-03-13 05:49:00,10.9,8.1,30.44,West,260,2.0,5.0,88,0.00,,,0.00,0.0,meteohub,2013-03-13 10:49:00,
2013-03-13 05:54:00,10.8,7.9,30.44,WSW,257,3.0,5.0,88,0.00,,,0.00,0.0,meteohub,2013-03-13 10:54:00,
2013-03-13 05:59:00,10.8,7.9,30.44,West,271,1.0,5.0,88,0.00,,,0.00,0.0,meteohub,2013-03-13 10:59:00,
2013-03-13 06:04:00,10.8,7.9,30.43,WNW,298,2.0,5.0,88,0.00,,,0.00,0.0,meteohub,2013-03-13 11:04:00,
2013-03-13 06:09:00,10.6,7.7,30.44,West,272,2.0,4.0,88,0.00,,,0.00,0.0,meteohub,2013-03-13 11:09:00,
2013-03-13 06:14:00,10.4,7.5,30.44,West,272,1.0,4.0,88,0.00,,,0.00,0.0,meteohub,2013-03-13 11:14:00,
2013-03-13 06:19:00,10.2,7.3,30.44,West,272,1.0,3.0,88,0.00,,,0.00,0.0,meteohub,2013-03-13 11:19:00,
2013-03-13 06:24:00,10.0,7.2,30.44,West,272,0.0,3.0,88,0.00,,,0.00,0.0,meteohub,2013-03-13 11:24:00,
2013-03-13 06:29:00,9.9,7.0,30.44,West,272,0.0,3.0,88,0.00,,,0.00,0.0,meteohub,2013-03-13 11:29:00,
2013-03-13 06:34:00,9.7,6.8,30.44,West,272,1.0,3.0,88,0.00,,,0.00,0.0,meteohub,2013-03-13 11:34:00,
2013-03-13 06:39:00,9.7,7.2,30.44,West,272,0.0,2.0,89,0.00,,,0.00,0.0,meteohub,2013-03-13 11:39:00,
2013-03-13 06:44:00,9.5,6.6,30.45,West,272,0.0,2.0,88,0.00,,,0.00,0.0,meteohub,2013-03-13 11:44:00,
2013-03-13 06:49:00,9.1,6.6,30.44,West,272,1.0,2.0,89,0.00,,,0.00,0.0,meteohub,2013-03-13 11:49:00,
2013-03-13 06:54:00,9.0,6.1,30.45,West,272,1.0,1.0,88,0.00,,,0.00,0.0,meteohub,2013-03-13 11:54:00,
2013-03-13 06:59:00,9.0,6.4,30.45,West,272,1.0,2.0,89,0.00,,,0.00,0.0,meteohub,2013-03-13 11:59:00,
2013-03-13 07:04:00,8.8,6.3,30.45,West,272,1.0,2.0,89,0.00,,,0.00,0.0,meteohub,2013-03-13 12:04:00,
2013-03-13 07:09:00,9.0,6.4,30.45,West,272,0.0,2.0,89,0.00,,,0.00,0.0,meteohub,2013-03-13 12:09:00,
2013-03-13 07:14:00,8.8,6.3,30.45,West,272,1.0,2.0,89,0.00,,,0.00,0.0,meteohub,2013-03-13 12:14:00,
2013-03-13 07:19:00,8.6,5.7,30.45,West,272,1.0,3.0,88,0.00,,,0.00,0.0,meteohub,2013-03-13 12:19:00,
2013-03-13 07:24:00,8.1,5.2,30.45,West,272,0.0,3.0,88,0.00,,,0.00,0.0,meteohub,2013-03-13 12:24:00,
2013-03-13 07:30:00,8.1,5.5,30.45,West,272,0.0,3.0,89,0.00,,,0.00,0.0,meteohub,2013-03-13 12:30:00,
2013-03-13 07:35:00,7.9,5.4,30.45,West,272,0.0,2.0,89,0.00,,,0.00,0.0,meteohub,2013-03-13 12:35:00,
2013-03-13 07:40:00,7.9,5.4,30.45,West,272,0.0,2.0,89,0.00,,,0.00,5.0,meteohub,2013-03-13 12:40:00,
2013-03-13 07:45:00,7.5,5.0,30.45,West,272,0.0,0.0,89,0.00,,,0.00,7.0,meteohub,2013-03-13 12:45:00,
2013-03-13 07:50:00,7.5,5.0,30.45,West,272,0.0,1.0,89,0.00,,,0.00,9.0,meteohub,2013-03-13 12:50:00,
2013-03-13 07:55:00,7.5,5.0,30.45,West,272,0.0,1.0,89,0.00,,,0.00,12.0,meteohub,2013-03-13 12:55:00,
2013-03-13 08:00:00,7.5,5.0,30.46,West,272,0.0,0.0,89,0.00,,,0.00,14.0,meteohub,2013-03-13 13:00:00,
2013-03-13 08:05:00,7.7,5.4,30.45,West,272,0.0,0.0,90,0.00,,,0.00,16.0,meteohub,2013-03-13 13:05:00,
2013-03-13 08:10:00,7.9,5.4,30.46,West,272,0.0,0.0,89,0.00,,,0.00,19.0,meteohub,2013-03-13 13:10:00,
2013-03-13 08:15:00,7.9,5.4,30.45,West,272,0.0,0.0,89,0.00,,,0.00,21.0,meteohub,2013-03-13 13:15:00,
2013-03-13 08:20:00,7.9,5.4,30.45,West,272,0.0,0.0,89,0.00,,,0.00,23.0,meteohub,2013-03-13 13:20:00,
2013-03-13 08:25:00,8.1,5.5,30.45,West,272,0.0,0.0,89,0.00,,,0.00,25.0,meteohub,2013-03-13 13:25:00,
2013-03-13 08:30:00,8.1,5.5,30.46,West,272,0.0,0.0,89,0.00,,,0.00,26.0,meteohub,2013-03-13 13:30:00,
2013-03-13 08:35:00,8.1,5.5,30.46,West,272,0.0,0.0,89,0.00,,,0.00,28.0,meteohub,2013-03-13 13:35:00,
2013-03-13 08:40:00,8.2,5.7,30.47,West,272,1.0,2.0,89,0.00,,,0.00,32.0,meteohub,2013-03-13 13:40:00,
2013-03-13 08:45:00,8.4,5.9,30.47,West,272,2.0,2.0,89,0.00,,,0.00,33.0,meteohub,2013-03-13 13:45:00,
2013-03-13 08:50:00,8.8,6.3,30.47,West,269,2.0,3.0,89,0.00,,,0.00,35.0,meteohub,2013-03-13 13:50:00,
2013-03-13 08:55:00,9.0,6.1,30.47,West,269,1.0,4.0,88,0.00,,,0.00,39.0,meteohub,2013-03-13 13:55:00,
2013-03-13 09:00:00,9.1,6.3,30.47,West,269,1.0,4.0,88,0.00,,,0.00,40.0,meteohub,2013-03-13 14:00:00,
2013-03-13 09:05:00,9.3,6.4,30.47,West,269,1.0,3.0,88,0.00,,,0.00,40.0,meteohub,2013-03-13 14:05:00,
2013-03-13 09:10:00,9.5,6.6,30.47,West,269,2.0,3.0,88,0.00,,,0.00,42.0,meteohub,2013-03-13 14:10:00,
2013-03-13 09:15:00,9.9,6.8,30.48,West,261,0.0,3.0,87,0.00,,,0.00,44.0,meteohub,2013-03-13 14:15:00,
2013-03-13 09:20:00,10.0,7.0,30.48,West,277,2.0,4.0,87,0.00,,,0.00,46.0,meteohub,2013-03-13 14:20:00,
2013-03-13 09:25:00,10.2,7.2,30.48,West,265,4.0,4.0,87,0.00,,,0.00,51.0,meteohub,2013-03-13 14:25:00,
2013-03-13 09:30:00,10.6,7.2,30.48,West,267,3.0,4.0,86,0.00,,,0.00,54.0,meteohub,2013-03-13 14:30:00,
2013-03-13 09:35:00,10.8,7.3,30.48,West,273,3.0,4.0,86,0.00,,,0.00,54.0,meteohub,2013-03-13 14:35:00,
2013-03-13 09:40:00,10.8,7.3,30.49,West,266,2.0,4.0,86,0.00,,,0.00,98.0,meteohub,2013-03-13 14:40:00,
2013-03-13 09:45:00,11.1,7.7,30.49,West,275,3.0,4.0,86,0.00,,,0.00,60.0,meteohub,2013-03-13 14:45:00,
2013-03-13 09:50:00,11.7,8.1,30.49,West,275,1.0,4.0,85,0.00,,,0.00,98.0,meteohub,2013-03-13 14:50:00,
2013-03-13 09:55:00,11.8,7.9,30.49,West,263,4.0,4.0,84,0.00,,,0.00,86.0,meteohub,2013-03-13 14:55:00,
2013-03-13 10:00:00,12.2,8.2,30.48,West,269,1.0,4.0,84,0.00,,,0.00,95.0,meteohub,2013-03-13 15:00:00,
2013-03-13 10:05:00,12.6,8.4,30.49,West,259,1.0,4.0,83,0.00,,,0.00,135.0,meteohub,2013-03-13 15:05:00,
2013-03-13 10:10:00,12.7,8.6,30.49,West,281,0.0,4.0,83,0.00,,,0.00,162.0,meteohub,2013-03-13 15:10:00,
2013-03-13 10:16:00,12.7,8.6,30.49,WNW,283,1.0,5.0,83,0.00,,,0.00,237.0,meteohub,2013-03-13 15:16:00,
2013-03-13 10:21:00,13.3,8.8,30.49,West,278,2.0,5.0,82,0.00,,,0.00,345.0,meteohub,2013-03-13 15:21:00,
2013-03-13 10:26:00,13.5,9.0,30.49,West,279,2.0,5.0,82,0.00,,,0.00,353.0,meteohub,2013-03-13 15:26:00,
2013-03-13 10:31:00,13.6,9.0,30.49,West,276,3.0,4.0,81,0.00,,,0.00,334.0,meteohub,2013-03-13 15:31:00,
2013-03-13 10:36:00,13.8,9.1,30.49,WNW,298,2.0,4.0,81,0.00,,,0.00,255.0,meteohub,2013-03-13 15:36:00,
2013-03-13 10:41:00,13.8,9.1,30.49,WNW,292,3.0,4.0,81,0.00,,,0.00,362.0,meteohub,2013-03-13 15:41:00,
2013-03-13 10:46:00,14.0,9.3,30.49,West,269,2.0,4.0,81,0.00,,,0.00,330.0,meteohub,2013-03-13 15:46:00,
2013-03-13 10:51:00,14.4,9.7,30.49,West,269,0.0,4.0,81,0.00,,,0.00,330.0,meteohub,2013-03-13 15:51:00,
2013-03-13 10:56:00,14.7,10.0,30.49,West,269,0.0,4.0,81,0.00,,,0.00,350.0,meteohub,2013-03-13 15:56:00,
2013-03-13 11:01:00,15.4,10.4,30.49,WNW,283,2.0,4.0,80,0.00,,,0.00,417.0,meteohub,2013-03-13 16:01:00,
2013-03-13 11:06:00,15.4,10.0,30.49,West,263,0.0,4.0,79,0.00,,,0.00,492.0,meteohub,2013-03-13 16:06:00,
2013-03-13 11:11:00,15.8,10.4,30.50,West,271,3.0,4.0,79,0.00,,,0.00,510.0,meteohub,2013-03-13 16:11:00,
2013-03-13 11:16:00,16.2,10.8,30.49,West,270,2.0,5.0,79,0.00,,,0.00,381.0,meteohub,2013-03-13 16:16:00,
2013-03-13 11:21:00,16.3,10.8,30.49,West,273,2.0,5.0,78,0.00,,,0.00,452.0,meteohub,2013-03-13 16:21:00,
2013-03-13 11:26:00,16.3,10.4,30.49,West,265,4.0,5.0,77,0.00,,,0.00,425.0,meteohub,2013-03-13 16:26:00,
2013-03-13 11:32:00,16.5,10.6,30.49,West,270,4.0,4.0,77,0.00,,,0.00,519.0,meteohub,2013-03-13 16:32:00,
2013-03-13 11:37:00,17.2,11.5,30.49,West,279,3.0,4.0,78,0.00,,,0.00,403.0,meteohub,2013-03-13 16:37:00,
2013-03-13 11:42:00,16.9,10.6,30.49,West,279,1.0,4.0,76,0.00,,,0.00,519.0,meteohub,2013-03-13 16:42:00,
2013-03-13 11:47:00,18.0,11.7,30.49,NNW,348,2.0,4.0,76,0.00,,,0.00,563.0,meteohub,2013-03-13 16:47:00,
2013-03-13 11:52:00,17.8,11.1,30.49,NNW,344,0.0,4.0,75,0.00,,,0.00,594.0,meteohub,2013-03-13 16:52:00,
2013-03-13 11:57:00,18.1,11.3,30.49,West,267,1.0,4.0,74,0.00,,,0.00,603.0,meteohub,2013-03-13 16:57:00,
2013-03-13 12:02:00,18.7,12.0,30.49,NW,325,0.0,4.0,75,0.00,,,0.00,612.0,meteohub,2013-03-13 17:02:00,
2013-03-13 12:07:00,19.0,12.2,30.48,West,280,0.0,4.0,74,0.00,,,0.00,571.0,meteohub,2013-03-13 17:07:00,
2013-03-13 12:12:00,19.2,12.4,30.48,NW,306,1.0,4.0,74,0.00,,,0.00,626.0,meteohub,2013-03-13 17:12:00,
2013-03-13 12:17:00,19.8,12.7,30.48,West,273,4.0,5.0,74,0.00,,,0.00,635.0,meteohub,2013-03-13 17:17:00,
2013-03-13 12:22:00,19.6,12.4,30.48,WNW,286,3.0,5.0,73,0.00,,,0.00,640.0,meteohub,2013-03-13 17:22:00,
2013-03-13 12:27:00,19.8,13.1,30.49,West,275,3.0,5.0,75,0.00,,,0.00,645.0,meteohub,2013-03-13 17:27:00,
2013-03-13 12:32:00,20.5,13.8,30.49,WNW,299,1.0,5.0,75,0.00,,,0.00,652.0,meteohub,2013-03-13 17:32:00,
2013-03-13 12:37:00,20.7,13.6,30.48,NNW,341,0.0,5.0,74,0.00,,,0.00,657.0,meteohub,2013-03-13 17:37:00,
2013-03-13 12:42:00,21.6,14.5,30.48,WSW,258,3.0,5.0,74,0.00,,,0.00,666.0,meteohub,2013-03-13 17:42:00,
2013-03-13 12:47:00,21.6,14.0,30.48,West,269,2.0,5.0,72,0.00,,,0.00,670.0,meteohub,2013-03-13 17:47:00,
2013-03-13 12:52:00,21.4,13.8,30.47,SSW,202,2.0,5.0,72,0.00,,,0.00,675.0,meteohub,2013-03-13 17:52:00,
2013-03-13 12:57:00,21.7,14.4,30.47,WNW,286,1.0,5.0,73,0.00,,,0.00,680.0,meteohub,2013-03-13 17:57:00,
2013-03-13 13:02:00,22.3,14.0,30.47,SSE,166,0.0,5.0,70,0.00,,,0.00,684.0,meteohub,2013-03-13 18:02:00,
2013-03-13 13:07:00,22.6,14.7,30.47,WNW,286,3.0,3.0,71,0.00,,,0.00,687.0,meteohub,2013-03-13 18:07:00,
2013-03-13 13:12:00,22.8,14.5,30.47,WSW,243,0.0,4.0,70,0.00,,,0.00,691.0,meteohub,2013-03-13 18:12:00,
2013-03-13 13:17:00,22.6,14.7,30.47,NW,309,1.0,4.0,71,0.00,,,0.00,693.0,meteohub,2013-03-13 18:17:00,
2013-03-13 13:22:00,22.8,14.9,30.47,WSW,253,2.0,4.0,71,0.00,,,0.00,693.0,meteohub,2013-03-13 18:22:00,
2013-03-13 13:27:00,23.4,15.4,30.47,WNW,285,3.0,4.0,71,0.00,,,0.00,696.0,meteohub,2013-03-13 18:27:00,
2013-03-13 13:32:00,23.5,15.3,30.47,West,273,1.0,4.0,70,0.00,,,0.00,696.0,meteohub,2013-03-13 18:32:00,
2013-03-13 13:37:00,23.7,15.4,30.47,West,276,3.0,4.0,70,0.00,,,0.00,694.0,meteohub,2013-03-13 18:37:00,
2013-03-13 13:42:00,23.9,15.8,30.47,West,270,4.0,5.0,71,0.00,,,0.00,691.0,meteohub,2013-03-13 18:42:00,
2013-03-13 13:48:00,23.7,15.6,30.47,WSW,256,3.0,5.0,71,0.00,,,0.00,691.0,meteohub,2013-03-13 18:48:00,
2013-03-13 13:53:00,23.4,15.6,30.47,West,269,2.0,6.0,72,0.00,,,0.00,689.0,meteohub,2013-03-13 18:53:00,
2013-03-13 13:58:00,23.9,15.8,30.46,WSW,253,4.0,6.0,71,0.00,,,0.00,694.0,meteohub,2013-03-13 18:58:00,
2013-03-13 14:03:00,23.7,15.6,30.47,WSW,237,2.0,6.0,71,0.00,,,0.00,689.0,meteohub,2013-03-13 19:03:00,
2013-03-13 14:08:00,24.1,16.3,30.46,WSW,257,1.0,6.0,72,0.00,,,0.00,686.0,meteohub,2013-03-13 19:08:00,
2013-03-13 14:13:00,24.3,16.2,30.46,SSW,203,1.0,6.0,71,0.00,,,0.00,684.0,meteohub,2013-03-13 19:13:00,
2013-03-13 14:18:00,24.4,16.3,30.46,SSW,192,0.0,4.0,71,0.00,,,0.00,684.0,meteohub,2013-03-13 19:18:00,
2013-03-13 14:23:00,24.3,16.2,30.46,West,273,4.0,5.0,71,0.00,,,0.00,680.0,meteohub,2013-03-13 19:23:00,
2013-03-13 14:28:00,24.1,16.3,30.46,West,264,0.0,5.0,72,0.00,,,0.00,677.0,meteohub,2013-03-13 19:28:00,
2013-03-13 14:33:00,24.6,16.9,30.45,WSW,244,1.0,5.0,72,0.00,,,0.00,679.0,meteohub,2013-03-13 19:33:00,
2013-03-13 14:38:00,24.4,16.3,30.45,SSW,200,0.0,5.0,71,0.00,,,0.00,677.0,meteohub,2013-03-13 19:38:00,
2013-03-13 14:43:00,24.4,16.7,30.45,SW,225,0.0,5.0,72,0.00,,,0.00,670.0,meteohub,2013-03-13 19:43:00,
2013-03-13 14:48:00,24.6,16.2,30.45,SSW,208,0.0,5.0,70,0.00,,,0.00,671.0,meteohub,2013-03-13 19:48:00,
2013-03-13 14:53:00,24.4,16.3,30.45,West,261,0.0,4.0,71,0.00,,,0.00,670.0,meteohub,2013-03-13 19:53:00,
2013-03-13 14:58:00,24.8,16.2,30.44,West,269,3.0,4.0,69,0.00,,,0.00,671.0,meteohub,2013-03-13 19:58:00,
2013-03-13 15:03:00,24.6,15.6,30.44,West,275,2.0,5.0,68,0.00,,,0.00,594.0,meteohub,2013-03-13 20:03:00,
2013-03-13 15:08:00,25.2,16.3,30.43,WSW,244,4.0,5.0,69,0.00,,,0.00,645.0,meteohub,2013-03-13 20:08:00,
2013-03-13 15:13:00,25.2,16.3,30.43,WNW,294,2.0,4.0,69,0.00,,,0.00,638.0,meteohub,2013-03-13 20:13:00,
2013-03-13 15:18:00,25.3,16.9,30.43,WNW,292,0.0,5.0,70,0.00,,,0.00,629.0,meteohub,2013-03-13 20:18:00,
2013-03-13 15:23:00,25.3,16.5,30.43,SSE,152,3.0,5.0,69,0.00,,,0.00,624.0,meteohub,2013-03-13 20:23:00,
2013-03-13 15:28:00,25.3,16.5,30.42,SW,229,2.0,5.0,69,0.00,,,0.00,619.0,meteohub,2013-03-13 20:28:00,
2013-03-13 15:33:00,25.9,16.5,30.42,SSW,192,1.0,5.0,67,0.00,,,0.00,650.0,meteohub,2013-03-13 20:33:00,
2013-03-13 15:38:00,25.7,16.3,30.42,West,281,2.0,5.0,67,0.00,,,0.00,601.0,meteohub,2013-03-13 20:38:00,
2013-03-13 15:43:00,25.9,16.2,30.42,SE,125,0.0,6.0,66,0.00,,,0.00,582.0,meteohub,2013-03-13 20:43:00,
2013-03-13 15:48:00,25.9,15.8,30.41,WSW,247,2.0,6.0,65,0.00,,,0.00,394.0,meteohub,2013-03-13 20:48:00,
2013-03-13 15:53:00,26.2,16.7,30.41,East,97,1.0,6.0,67,0.00,,,0.00,508.0,meteohub,2013-03-13 20:53:00,
2013-03-13 15:59:00,26.8,17.2,30.40,SSW,207,0.0,6.0,67,0.00,,,0.00,406.0,meteohub,2013-03-13 20:59:00,
2013-03-13 16:04:00,26.8,16.9,30.40,West,272,1.0,6.0,66,0.00,,,0.00,294.0,meteohub,2013-03-13 21:04:00,
2013-03-13 16:09:00,27.0,17.1,30.39,South,185,0.0,4.0,66,0.00,,,0.00,329.0,meteohub,2013-03-13 21:09:00,
2013-03-13 16:14:00,26.4,16.9,30.39,South,186,1.0,4.0,67,0.00,,,0.00,285.0,meteohub,2013-03-13 21:14:00,
2013-03-13 16:19:00,26.8,17.6,30.38,WSW,237,2.0,4.0,68,0.00,,,0.00,381.0,meteohub,2013-03-13 21:19:00,
2013-03-13 16:24:00,26.8,18.0,30.38,SSW,198,3.0,5.0,69,0.00,,,0.00,142.0,meteohub,2013-03-13 21:24:00,
2013-03-13 16:29:00,26.6,17.8,30.38,NNE,24,1.0,5.0,69,0.00,,,0.00,165.0,meteohub,2013-03-13 21:29:00,
2013-03-13 16:34:00,26.4,17.6,30.38,SSE,164,0.0,5.0,69,0.00,,,0.00,158.0,meteohub,2013-03-13 21:34:00,
2013-03-13 16:39:00,26.6,17.8,30.38,SW,233,0.0,7.0,69,0.00,,,0.00,269.0,meteohub,2013-03-13 21:39:00,
2013-03-13 16:44:00,26.8,18.3,30.38,South,175,2.0,7.0,70,0.00,,,0.00,183.0,meteohub,2013-03-13 21:44:00,
2013-03-13 16:49:00,27.0,18.9,30.38,South,178,2.0,7.0,71,0.00,,,0.00,107.0,meteohub,2013-03-13 21:49:00,
2013-03-13 16:54:00,26.2,18.1,30.38,SW,229,2.0,4.0,71,0.00,,,0.00,88.0,meteohub,2013-03-13 21:54:00,
2013-03-13 16:59:00,26.2,18.5,30.38,SSE,163,0.0,4.0,72,0.00,,,0.00,105.0,meteohub,2013-03-13 21:59:00,
2013-03-13 17:04:00,27.0,19.4,30.38,WSW,250,2.0,5.0,73,0.00,,,0.00,156.0,meteohub,2013-03-13 22:04:00,
2013-03-13 17:09:00,27.0,19.4,30.38,SSW,196,0.0,5.0,73,0.00,,,0.00,104.0,meteohub,2013-03-13 22:09:00,
2013-03-13 17:14:00,26.8,19.2,30.37,SSE,165,0.0,4.0,73,0.00,,,0.00,223.0,meteohub,2013-03-13 22:14:00,
2013-03-13 17:19:00,26.6,19.0,30.37,SE,140,3.0,4.0,73,0.00,,,0.00,200.0,meteohub,2013-03-13 22:19:00,
2013-03-13 17:24:00,26.4,18.9,30.38,South,170,3.0,4.0,73,0.00,,,0.00,113.0,meteohub,2013-03-13 22:24:00,
2013-03-13 17:29:00,26.8,19.6,30.38,South,178,0.0,6.0,74,0.00,,,0.00,125.0,meteohub,2013-03-13 22:29:00,
2013-03-13 17:34:00,26.8,19.2,30.38,South,176,0.0,6.0,73,0.00,,,0.00,174.0,meteohub,2013-03-13 22:34:00,
2013-03-13 17:39:00,27.0,19.8,30.38,SW,214,0.0,6.0,74,0.00,,,0.00,88.0,meteohub,2013-03-13 22:39:00,
2013-03-13 17:44:00,27.0,19.8,30.38,South,182,0.0,4.0,74,0.00,,,0.00,111.0,meteohub,2013-03-13 22:44:00,
2013-03-13 17:49:00,26.8,19.6,30.36,NW,320,0.0,5.0,74,0.00,,,0.00,72.0,meteohub,2013-03-13 22:49:00,
2013-03-13 17:54:00,26.4,19.6,30.36,South,169,1.0,5.0,75,0.00,,,0.00,84.0,meteohub,2013-03-13 22:54:00,
2013-03-13 17:59:00,26.8,19.9,30.36,SW,223,0.0,5.0,75,0.00,,,0.00,84.0,meteohub,2013-03-13 22:59:00,
2013-03-13 18:04:00,26.6,19.8,30.36,NNE,29,0.0,5.0,75,0.00,,,0.00,98.0,meteohub,2013-03-13 23:04:00,
2013-03-13 18:09:00,26.6,20.1,30.36,SW,236,0.0,3.0,76,0.00,,,0.00,77.0,meteohub,2013-03-13 23:09:00,
2013-03-13 18:14:00,26.8,19.9,30.36,SSE,153,1.0,3.0,75,0.00,,,0.00,77.0,meteohub,2013-03-13 23:14:00,
2013-03-13 18:19:00,26.4,19.9,30.36,NE,56,1.0,3.0,76,0.00,,,0.00,84.0,meteohub,2013-03-13 23:19:00,
2013-03-13 18:24:00,26.4,20.1,30.36,SSW,192,0.0,3.0,77,0.00,,,0.00,58.0,meteohub,2013-03-13 23:24:00,
2013-03-13 18:29:00,26.2,19.9,30.35,NNE,15,2.0,4.0,77,0.00,,,0.00,53.0,meteohub,2013-03-13 23:29:00,
2013-03-13 18:34:00,26.1,20.1,30.35,NW,309,0.0,4.0,78,0.00,,,0.00,44.0,meteohub,2013-03-13 23:34:00,
2013-03-13 18:39:00,26.1,20.1,30.35,NW,306,0.0,4.0,78,0.00,,,0.00,37.0,meteohub,2013-03-13 23:39:00,
2013-03-13 18:44:00,26.1,20.1,30.35,North,5,0.0,3.0,78,0.00,,,0.00,37.0,meteohub,2013-03-13 23:44:00,
2013-03-13 18:49:00,26.1,20.1,30.35,North,5,0.0,3.0,78,0.00,,,0.00,39.0,meteohub,2013-03-13 23:49:00,
2013-03-13 18:54:00,26.1,20.1,30.36,NNW,338,0.0,3.0,78,0.00,,,0.00,39.0,meteohub,2013-03-13 23:54:00,
2013-03-13 18:59:00,26.1,20.1,30.35,North,351,0.0,2.0,78,0.00,,,0.00,33.0,meteohub,2013-03-13 23:59:00,
2013-03-13 19:04:00,25.9,20.3,30.35,East,98,0.0,2.0,79,0.00,,,0.00,28.0,meteohub,2013-03-14 00:04:00,
2013-03-13 19:09:00,25.9,20.3,30.35,SSW,209,0.0,2.0,79,0.00,,,0.00,25.0,meteohub,2013-03-14 00:09:00,
2013-03-13 19:14:00,25.9,20.3,30.35,SE,143,0.0,3.0,79,0.00,,,0.00,18.0,meteohub,2013-03-14 00:14:00,
2013-03-13 19:19:00,25.9,20.3,30.35,East,79,0.0,3.0,79,0.00,,,0.00,9.0,meteohub,2013-03-14 00:19:00,
2013-03-13 19:24:00,25.5,20.3,30.35,ENE,74,0.0,3.0,80,0.00,,,0.00,5.0,meteohub,2013-03-14 00:24:00,
2013-03-13 19:29:00,25.3,20.3,30.35,East,80,0.0,2.0,81,0.00,,,0.00,0.0,meteohub,2013-03-14 00:29:00,
2013-03-13 19:34:00,25.2,20.1,30.34,SSE,153,0.0,4.0,81,0.00,,,0.00,0.0,meteohub,2013-03-14 00:34:00,
2013-03-13 19:40:00,24.8,20.1,30.34,West,259,0.0,4.0,82,0.00,,,0.00,0.0,meteohub,2013-03-14 00:40:00,
2013-03-13 19:45:00,24.6,19.9,30.34,South,180,0.0,4.0,82,0.00,,,0.00,0.0,meteohub,2013-03-14 00:45:00,
2013-03-13 19:50:00,24.6,19.9,30.34,SE,129,0.0,4.0,82,0.00,,,0.00,0.0,meteohub,2013-03-14 00:50:00,
2013-03-13 19:55:00,24.4,19.8,30.33,ENE,59,1.0,3.0,82,0.00,,,0.00,0.0,meteohub,2013-03-14 00:55:00,
2013-03-13 20:00:00,24.3,19.6,30.33,ESE,116,0.0,3.0,82,0.00,,,0.00,0.0,meteohub,2013-03-14 01:00:00,
2013-03-13 20:05:00,24.3,19.6,30.33,East,94,0.0,2.0,82,0.00,,,0.00,0.0,meteohub,2013-03-14 01:05:00,
2013-03-13 20:10:00,24.3,19.6,30.33,NNE,18,1.0,2.0,82,0.00,,,0.00,0.0,meteohub,2013-03-14 01:10:00,
2013-03-13 20:15:00,24.3,19.6,30.33,NNE,27,0.0,2.0,82,0.00,,,0.00,0.0,meteohub,2013-03-14 01:15:00,
2013-03-13 20:20:00,24.3,19.6,30.32,NNE,27,0.0,2.0,82,0.00,,,0.00,0.0,meteohub,2013-03-14 01:20:00,
2013-03-13 20:25:00,24.3,19.8,30.32,SSE,155,0.0,2.0,83,0.00,,,0.00,0.0,meteohub,2013-03-14 01:25:00,
2013-03-13 20:30:00,24.3,19.8,30.32,SE,140,0.0,2.0,83,0.00,,,0.00,0.0,meteohub,2013-03-14 01:30:00,
2013-03-13 20:35:00,24.3,19.6,30.31,ENE,76,0.0,2.0,82,0.00,,,0.00,0.0,meteohub,2013-03-14 01:35:00,
2013-03-13 20:40:00,24.3,19.6,30.31,East,87,0.0,3.0,82,0.00,,,0.00,0.0,meteohub,2013-03-14 01:40:00,
2013-03-13 20:45:00,24.3,19.6,30.30,ENE,62,0.0,3.0,82,0.00,,,0.00,0.0,meteohub,2013-03-14 01:45:00,
2013-03-13 20:50:00,24.1,19.4,30.30,ENE,62,0.0,3.0,82,0.00,,,0.00,0.0,meteohub,2013-03-14 01:50:00,
2013-03-13 20:55:00,24.1,19.4,30.30,East,94,0.0,3.0,82,0.00,,,0.00,0.0,meteohub,2013-03-14 01:55:00,
2013-03-13 21:00:00,24.1,19.4,30.30,East,79,0.0,3.0,82,0.00,,,0.00,0.0,meteohub,2013-03-14 02:00:00,
2013-03-13 21:05:00,24.1,19.4,30.29,East,83,0.0,2.0,82,0.00,,,0.00,0.0,meteohub,2013-03-14 02:05:00,
2013-03-13 21:10:00,24.1,19.8,30.29,SSE,159,1.0,2.0,83,0.00,,,0.00,0.0,meteohub,2013-03-14 02:10:00,
2013-03-13 21:15:00,24.1,19.8,30.29,SE,146,0.0,2.0,83,0.00,,,0.00,0.0,meteohub,2013-03-14 02:15:00,
2013-03-13 21:20:00,24.1,19.9,30.28,SE,132,0.0,2.0,84,0.00,,,0.00,0.0,meteohub,2013-03-14 02:20:00,
2013-03-13 21:25:00,24.3,20.1,30.28,SSE,157,0.0,2.0,84,0.00,,,0.00,0.0,meteohub,2013-03-14 02:25:00,
2013-03-13 21:30:00,24.3,20.1,30.28,SE,138,0.0,2.0,84,0.00,,,0.00,0.0,meteohub,2013-03-14 02:30:00,
2013-03-13 21:35:00,24.3,20.1,30.28,SE,131,0.0,4.0,84,0.00,,,0.00,0.0,meteohub,2013-03-14 02:35:00,
2013-03-13 21:40:00,24.4,20.7,30.28,SW,220,0.0,4.0,85,0.00,,,0.00,0.0,meteohub,2013-03-14 02:40:00,
2013-03-13 21:45:00,24.4,20.7,30.28,ESE,108,0.0,2.0,85,0.00,,,0.00,0.0,meteohub,2013-03-14 02:45:00,
2013-03-13 21:50:00,24.6,20.8,30.28,SSE,150,0.0,3.0,85,0.00,,,0.00,0.0,meteohub,2013-03-14 02:50:00,
2013-03-13 21:55:00,24.6,20.8,30.28,SSW,209,0.0,3.0,85,0.00,,,0.00,0.0,meteohub,2013-03-14 02:55:00,
2013-03-13 22:00:00,24.8,21.2,30.28,WNW,301,0.0,2.0,86,0.00,,,0.00,0.0,meteohub,2013-03-14 03:00:00,
2013-03-13 22:05:00,25.0,21.4,30.29,WNW,301,0.0,2.0,86,0.00,,,0.00,0.0,meteohub,2013-03-14 03:05:00,
2013-03-13 22:10:00,25.2,21.6,30.28,WNW,301,0.0,1.0,86,0.00,,,0.00,0.0,meteohub,2013-03-14 03:10:00,
2013-03-13 22:15:00,25.3,22.1,30.28,East,90,0.0,1.0,87,0.00,,,0.00,0.0,meteohub,2013-03-14 03:15:00,
2013-03-13 22:20:00,25.9,22.5,30.28,ESE,108,0.0,1.0,87,0.00,,,0.00,0.0,meteohub,2013-03-14 03:20:00,
2013-03-13 22:25:00,26.2,22.8,30.27,SSE,153,0.0,2.0,87,0.00,,,0.00,0.0,meteohub,2013-03-14 03:25:00,
2013-03-13 22:30:00,26.6,23.2,30.27,SSE,153,0.0,2.0,87,0.00,,,0.00,0.0,meteohub,2013-03-14 03:30:00,
2013-03-13 22:35:00,27.0,23.5,30.27,South,182,0.0,2.0,87,0.00,,,0.00,0.0,meteohub,2013-03-14 03:35:00,
2013-03-13 22:40:00,27.3,23.9,30.27,ESE,120,0.0,1.0,87,0.00,,,0.00,0.0,meteohub,2013-03-14 03:40:00,
2013-03-13 22:45:00,27.9,24.4,30.27,SSE,160,3.0,4.0,87,0.00,,,0.00,0.0,meteohub,2013-03-14 03:45:00,
2013-03-13 22:50:00,28.0,24.4,30.26,SSW,196,2.0,5.0,86,0.00,,,0.00,0.0,meteohub,2013-03-14 03:50:00,
2013-03-13 22:55:00,28.2,24.6,30.25,East,101,0.0,5.0,86,0.00,,,0.00,0.0,meteohub,2013-03-14 03:55:00,
2013-03-13 23:00:00,28.2,24.6,30.25,SSW,193,0.0,5.0,86,0.00,,,0.00,0.0,meteohub,2013-03-14 04:00:00,
2013-03-13 23:02:00,28.2,24.6,30.24,SSE,150,2.0,5.0,86,0.00,,,0.00,0.0,meteohub,2013-03-14 04:02:00,
2013-03-13 23:07:00,28.4,24.8,30.24,SW,227,0.0,5.0,86,0.00,,,0.00,0.0,meteohub,2013-03-14 04:07:00,
2013-03-13 23:12:00,28.4,24.8,30.24,SSW,202,0.0,5.0,86,0.00,,,0.00,0.0,meteohub,2013-03-14 04:12:00,
2013-03-13 23:17:00,28.4,24.8,30.24,ESE,113,1.0,5.0,86,0.00,,,0.00,0.0,meteohub,2013-03-14 04:17:00,
2013-03-13 23:22:00,28.2,24.6,30.23,SSE,157,0.0,5.0,86,0.00,,,0.00,0.0,meteohub,2013-03-14 04:22:00,
2013-03-13 23:27:00,28.2,24.6,30.23,NW,313,0.0,5.0,86,0.00,,,0.00,0.0,meteohub,2013-03-14 04:27:00,
2013-03-13 23:32:00,28.0,24.4,30.23,SSW,195,0.0,3.0,86,0.00,,,0.00,0.0,meteohub,2013-03-14 04:32:00,
2013-03-13 23:37:00,28.0,24.6,30.23,SSW,198,0.0,3.0,87,0.00,,,0.00,0.0,meteohub,2013-03-14 04:37:00,
2013-03-13 23:42:00,28.2,24.6,30.23,NNE,17,1.0,3.0,86,0.00,,,0.00,0.0,meteohub,2013-03-14 04:42:00,
2013-03-13 23:47:00,28.2,24.6,30.23,SE,126,1.0,7.0,86,0.00,,,0.00,0.0,meteohub,2013-03-14 04:47:00,
2013-03-13 23:52:00,28.4,24.8,30.23,SE,135,0.0,7.0,86,0.00,,,0.00,0.0,meteohub,2013-03-14 04:52:00,
2013-03-13 23:57:00,28.4,24.8,30.22,SE,146,0.0,5.0,86,0.00,,,0.00,0.0,meteohub,2013-03-14 04:57:00,